sensor_id;sensor_type;location;lat;lon;timestamp;P1;durP1;ratioP1;P2;durP2;ratioP2
25511;SDS011;13414;44.534;18.700;2023-10-13T00:00:28;24.60;;;16.60;;
25511;SDS011;13414;44.534;18.700;2023-10-13T00:03:04;24.05;;;16.52;;
25511;SDS011;13414;44.534;18.700;2023-10-13T00:05:34;23.50;;;15.80;;
25511;SDS011;13414;44.534;18.700;2023-10-13T00:08:04;27.08;;;16.70;;
25511;SDS011;13414;44.534;18.700;2023-10-13T00:10:32;26.27;;;15.77;;
25511;SDS011;13414;44.534;18.700;2023-10-13T00:13:00;26.80;;;15.13;;
25511;SDS011;13414;44.534;18.700;2023-10-13T00:15:40;22.35;;;14.00;;
25511;SDS011;13414;44.534;18.700;2023-10-13T00:18:12;21.33;;;13.82;;
25511;SDS011;13414;44.534;18.700;2023-10-13T00:20:40;23.13;;;14.55;;
25511;SDS011;13414;44.534;18.700;2023-10-13T00:23:14;22.60;;;14.40;;
25511;SDS011;13414;44.534;18.700;2023-10-13T00:25:46;27.00;;;14.68;;
25511;SDS011;13414;44.534;18.700;2023-10-13T00:28:22;23.40;;;14.57;;
25511;SDS011;13414;44.534;18.700;2023-10-13T00:30:54;22.20;;;15.00;;
25511;SDS011;13414;44.534;18.700;2023-10-13T00:33:30;22.60;;;14.27;;
25511;SDS011;13414;44.534;18.700;2023-10-13T00:35:58;24.25;;;15.38;;
25511;SDS011;13414;44.534;18.700;2023-10-13T00:38:26;24.73;;;14.88;;
25511;SDS011;13414;44.534;18.700;2023-10-13T00:40:54;22.08;;;14.82;;
25511;SDS011;13414;44.534;18.700;2023-10-13T00:43:28;22.15;;;14.70;;
25511;SDS011;13414;44.534;18.700;2023-10-13T00:46:02;21.13;;;14.25;;
25511;SDS011;13414;44.534;18.700;2023-10-13T00:48:38;27.13;;;15.80;;
25511;SDS011;13414;44.534;18.700;2023-10-13T00:51:17;25.38;;;17.05;;
25511;SDS011;13414;44.534;18.700;2023-10-13T00:53:58;24.92;;;16.75;;
25511;SDS011;13414;44.534;18.700;2023-10-13T00:56:27;25.52;;;16.15;;
25511;SDS011;13414;44.534;18.700;2023-10-13T00:58:57;20.80;;;15.18;;
25511;SDS011;13414;44.534;18.700;2023-10-13T01:01:29;26.65;;;15.77;;
25511;SDS011;13414;44.534;18.700;2023-10-13T01:03:58;24.48;;;16.00;;
25511;SDS011;13414;44.534;18.700;2023-10-13T01:06:25;21.58;;;14.23;;
25511;SDS011;13414;44.534;18.700;2023-10-13T01:08:57;25.75;;;15.68;;
25511;SDS011;13414;44.534;18.700;2023-10-13T01:11:25;28.10;;;17.17;;
25511;SDS011;13414;44.534;18.700;2023-10-13T01:13:55;40.97;;;24.75;;
25511;SDS011;13414;44.534;18.700;2023-10-13T01:16:22;24.48;;;15.80;;
25511;SDS011;13414;44.534;18.700;2023-10-13T01:18:53;27.70;;;15.13;;
25511;SDS011;13414;44.534;18.700;2023-10-13T01:21:25;24.25;;;16.35;;
25511;SDS011;13414;44.534;18.700;2023-10-13T01:23:55;21.85;;;14.07;;
25511;SDS011;13414;44.534;18.700;2023-10-13T01:26:21;22.60;;;15.38;;
25511;SDS011;13414;44.534;18.700;2023-10-13T01:28:51;22.70;;;15.40;;
25511;SDS011;13414;44.534;18.700;2023-10-13T01:31:22;23.83;;;15.45;;
25511;SDS011;13414;44.534;18.700;2023-10-13T01:33:55;20.42;;;14.93;;
25511;SDS011;13414;44.534;18.700;2023-10-13T01:36:24;25.35;;;15.93;;
25511;SDS011;13414;44.534;18.700;2023-10-13T01:38:55;25.17;;;17.60;;
25511;SDS011;13414;44.534;18.700;2023-10-13T01:41:22;22.70;;;15.20;;
25511;SDS011;13414;44.534;18.700;2023-10-13T01:43:49;22.77;;;14.80;;
25511;SDS011;13414;44.534;18.700;2023-10-13T01:46:15;23.15;;;14.73;;
25511;SDS011;13414;44.534;18.700;2023-10-13T01:48:47;18.42;;;14.57;;
25511;SDS011;13414;44.534;18.700;2023-10-13T01:51:14;23.13;;;15.20;;
25511;SDS011;13414;44.534;18.700;2023-10-13T01:53:41;24.60;;;15.93;;
25511;SDS011;13414;44.534;18.700;2023-10-13T01:56:09;23.48;;;16.20;;
25511;SDS011;13414;44.534;18.700;2023-10-13T01:58:37;23.83;;;15.43;;
25511;SDS011;13414;44.534;18.700;2023-10-13T02:01:07;23.10;;;14.98;;
25511;SDS011;13414;44.534;18.700;2023-10-13T02:03:36;26.10;;;15.57;;
25511;SDS011;13414;44.534;18.700;2023-10-13T02:06:07;22.30;;;15.75;;
25511;SDS011;13414;44.534;18.700;2023-10-13T02:08:43;24.63;;;16.17;;
25511;SDS011;13414;44.534;18.700;2023-10-13T02:11:14;19.85;;;15.02;;
25511;SDS011;13414;44.534;18.700;2023-10-13T02:13:44;23.35;;;15.63;;
25511;SDS011;13414;44.534;18.700;2023-10-13T02:16:14;23.70;;;15.40;;
25511;SDS011;13414;44.534;18.700;2023-10-13T02:18:47;22.98;;;15.32;;
25511;SDS011;13414;44.534;18.700;2023-10-13T02:21:17;23.60;;;16.20;;
25511;SDS011;13414;44.534;18.700;2023-10-13T02:23:45;24.10;;;16.92;;
25511;SDS011;13414;44.534;18.700;2023-10-13T02:26:11;24.65;;;16.80;;
25511;SDS011;13414;44.534;18.700;2023-10-13T02:28:52;22.95;;;15.63;;
25511;SDS011;13414;44.534;18.700;2023-10-13T02:31:22;21.63;;;14.50;;
25511;SDS011;13414;44.534;18.700;2023-10-13T02:33:50;25.27;;;15.38;;
25511;SDS011;13414;44.534;18.700;2023-10-13T02:36:16;19.50;;;14.38;;
25511;SDS011;13414;44.534;18.700;2023-10-13T02:38:48;22.95;;;14.48;;
25511;SDS011;13414;44.534;18.700;2023-10-13T02:41:17;21.73;;;13.75;;
25511;SDS011;13414;44.534;18.700;2023-10-13T02:43:51;20.35;;;14.27;;
25511;SDS011;13414;44.534;18.700;2023-10-13T02:46:18;21.23;;;13.85;;
25511;SDS011;13414;44.534;18.700;2023-10-13T02:48:48;18.60;;;13.65;;
25511;SDS011;13414;44.534;18.700;2023-10-13T02:51:18;21.55;;;13.90;;
25511;SDS011;13414;44.534;18.700;2023-10-13T02:53:50;21.40;;;13.50;;
25511;SDS011;13414;44.534;18.700;2023-10-13T02:56:19;21.15;;;13.43;;
25511;SDS011;13414;44.534;18.700;2023-10-13T02:58:47;19.95;;;14.40;;
25511;SDS011;13414;44.534;18.700;2023-10-13T03:01:19;23.15;;;14.90;;
25511;SDS011;13414;44.534;18.700;2023-10-13T03:03:52;23.60;;;14.48;;
25511;SDS011;13414;44.534;18.700;2023-10-13T03:06:20;21.60;;;15.65;;
25511;SDS011;13414;44.534;18.700;2023-10-13T03:08:59;21.08;;;16.60;;
25511;SDS011;13414;44.534;18.700;2023-10-13T03:11:41;26.55;;;17.42;;
25511;SDS011;13414;44.534;18.700;2023-10-13T03:14:14;24.63;;;16.52;;
25511;SDS011;13414;44.534;18.700;2023-10-13T03:16:50;22.48;;;15.15;;
25511;SDS011;13414;44.534;18.700;2023-10-13T03:19:18;23.15;;;14.40;;
25511;SDS011;13414;44.534;18.700;2023-10-13T03:21:44;21.75;;;14.02;;
25511;SDS011;13414;44.534;18.700;2023-10-13T03:24:20;19.52;;;14.57;;
25511;SDS011;13414;44.534;18.700;2023-10-13T03:27:00;21.70;;;14.25;;
25511;SDS011;13414;44.534;18.700;2023-10-13T03:29:35;23.08;;;14.80;;
25511;SDS011;13414;44.534;18.700;2023-10-13T03:32:04;23.67;;;15.80;;
25511;SDS011;13414;44.534;18.700;2023-10-13T03:34:37;24.17;;;15.57;;
25511;SDS011;13414;44.534;18.700;2023-10-13T03:37:14;23.83;;;15.68;;
25511;SDS011;13414;44.534;18.700;2023-10-13T03:39:45;24.67;;;15.45;;
25511;SDS011;13414;44.534;18.700;2023-10-13T03:42:15;22.02;;;16.23;;
25511;SDS011;13414;44.534;18.700;2023-10-13T03:44:44;20.40;;;15.40;;
25511;SDS011;13414;44.534;18.700;2023-10-13T03:47:13;23.20;;;16.27;;
25511;SDS011;13414;44.534;18.700;2023-10-13T03:49:52;21.58;;;15.43;;
25511;SDS011;13414;44.534;18.700;2023-10-13T03:52:40;22.63;;;13.88;;
25511;SDS011;13414;44.534;18.700;2023-10-13T03:55:08;26.63;;;15.05;;
25511;SDS011;13414;44.534;18.700;2023-10-13T03:57:44;22.50;;;14.40;;
25511;SDS011;13414;44.534;18.700;2023-10-13T04:00:15;23.85;;;15.02;;
25511;SDS011;13414;44.534;18.700;2023-10-13T04:02:49;21.73;;;13.95;;
25511;SDS011;13414;44.534;18.700;2023-10-13T04:05:20;24.75;;;17.65;;
25511;SDS011;13414;44.534;18.700;2023-10-13T04:08:02;30.23;;;20.73;;
25511;SDS011;13414;44.534;18.700;2023-10-13T04:10:49;35.50;;;23.13;;
25511;SDS011;13414;44.534;18.700;2023-10-13T04:13:33;27.17;;;19.52;;
25511;SDS011;13414;44.534;18.700;2023-10-13T04:16:17;26.77;;;16.02;;
25511;SDS011;13414;44.534;18.700;2023-10-13T04:18:58;22.27;;;14.95;;
25511;SDS011;13414;44.534;18.700;2023-10-13T04:21:33;23.23;;;15.75;;
25511;SDS011;13414;44.534;18.700;2023-10-13T04:24:21;24.05;;;16.25;;
25511;SDS011;13414;44.534;18.700;2023-10-13T04:27:04;21.55;;;14.73;;
25511;SDS011;13414;44.534;18.700;2023-10-13T04:29:50;23.30;;;16.08;;
25511;SDS011;13414;44.534;18.700;2023-10-13T04:32:35;26.42;;;16.35;;
25511;SDS011;13414;44.534;18.700;2023-10-13T04:35:04;25.33;;;17.58;;
25511;SDS011;13414;44.534;18.700;2023-10-13T04:37:42;21.15;;;15.15;;
25511;SDS011;13414;44.534;18.700;2023-10-13T04:40:17;28.08;;;16.40;;
25511;SDS011;13414;44.534;18.700;2023-10-13T04:42:50;27.33;;;17.40;;
25511;SDS011;13414;44.534;18.700;2023-10-13T04:45:20;30.02;;;16.45;;
25511;SDS011;13414;44.534;18.700;2023-10-13T04:48:15;24.60;;;16.67;;
25511;SDS011;13414;44.534;18.700;2023-10-13T04:50:58;25.58;;;17.10;;
25511;SDS011;13414;44.534;18.700;2023-10-13T04:53:40;25.92;;;15.38;;
25511;SDS011;13414;44.534;18.700;2023-10-13T04:56:21;20.17;;;15.00;;
25511;SDS011;13414;44.534;18.700;2023-10-13T04:59:15;28.30;;;16.80;;
25511;SDS011;13414;44.534;18.700;2023-10-13T05:02:02;24.80;;;17.00;;
25511;SDS011;13414;44.534;18.700;2023-10-13T05:04:46;26.02;;;16.73;;
25511;SDS011;13414;44.534;18.700;2023-10-13T05:07:31;21.05;;;14.73;;
25511;SDS011;13414;44.534;18.700;2023-10-13T05:10:16;28.23;;;14.82;;
25511;SDS011;13414;44.534;18.700;2023-10-13T05:13:03;22.38;;;15.13;;
25511;SDS011;13414;44.534;18.700;2023-10-13T05:15:49;26.08;;;16.17;;
25511;SDS011;13414;44.534;18.700;2023-10-13T05:18:36;25.02;;;17.48;;
25511;SDS011;13414;44.534;18.700;2023-10-13T05:21:17;25.77;;;16.90;;
25511;SDS011;13414;44.534;18.700;2023-10-13T05:24:02;33.63;;;18.58;;
25511;SDS011;13414;44.534;18.700;2023-10-13T05:26:48;27.75;;;20.88;;
25511;SDS011;13414;44.534;18.700;2023-10-13T05:29:33;28.85;;;19.17;;
25511;SDS011;13414;44.534;18.700;2023-10-13T05:32:17;42.40;;;19.27;;
25511;SDS011;13414;44.534;18.700;2023-10-13T05:35:04;34.25;;;16.42;;
25511;SDS011;13414;44.534;18.700;2023-10-13T05:37:49;33.50;;;16.23;;
25511;SDS011;13414;44.534;18.700;2023-10-13T05:40:34;26.85;;;16.02;;
25511;SDS011;13414;44.534;18.700;2023-10-13T05:43:18;29.25;;;20.25;;
25511;SDS011;13414;44.534;18.700;2023-10-13T05:46:03;26.95;;;18.65;;
25511;SDS011;13414;44.534;18.700;2023-10-13T05:49:01;27.92;;;17.65;;
25511;SDS011;13414;44.534;18.700;2023-10-13T05:51:45;28.45;;;17.30;;
25511;SDS011;13414;44.534;18.700;2023-10-13T05:54:23;26.98;;;18.25;;
25511;SDS011;13414;44.534;18.700;2023-10-13T05:57:08;24.35;;;16.30;;
25511;SDS011;13414;44.534;18.700;2023-10-13T06:00:05;26.05;;;17.10;;
25511;SDS011;13414;44.534;18.700;2023-10-13T06:02:50;30.48;;;17.67;;
25511;SDS011;13414;44.534;18.700;2023-10-13T06:05:34;49.33;;;19.70;;
25511;SDS011;13414;44.534;18.700;2023-10-13T06:08:20;28.13;;;15.82;;
25511;SDS011;13414;44.534;18.700;2023-10-13T06:11:05;28.45;;;19.35;;
25511;SDS011;13414;44.534;18.700;2023-10-13T06:13:49;38.80;;;18.17;;
25511;SDS011;13414;44.534;18.700;2023-10-13T06:16:34;32.58;;;17.88;;
25511;SDS011;13414;44.534;18.700;2023-10-13T06:19:19;90.00;;;24.65;;
25511;SDS011;13414;44.534;18.700;2023-10-13T06:22:03;32.70;;;17.20;;
25511;SDS011;13414;44.534;18.700;2023-10-13T06:24:50;31.30;;;16.90;;
25511;SDS011;13414;44.534;18.700;2023-10-13T06:27:34;50.80;;;27.55;;
25511;SDS011;13414;44.534;18.700;2023-10-13T06:30:19;31.90;;;17.02;;
25511;SDS011;13414;44.534;18.700;2023-10-13T06:32:46;26.50;;;15.65;;
25511;SDS011;13414;44.534;18.700;2023-10-13T06:35:16;26.23;;;16.65;;
25511;SDS011;13414;44.534;18.700;2023-10-13T06:37:48;26.48;;;16.17;;
25511;SDS011;13414;44.534;18.700;2023-10-13T06:40:17;27.63;;;16.63;;
25511;SDS011;13414;44.534;18.700;2023-10-13T06:42:58;28.58;;;15.73;;
25511;SDS011;13414;44.534;18.700;2023-10-13T06:45:42;31.98;;;16.70;;
25511;SDS011;13414;44.534;18.700;2023-10-13T06:48:15;27.02;;;16.17;;
25511;SDS011;13414;44.534;18.700;2023-10-13T06:50:47;30.73;;;16.33;;
25511;SDS011;13414;44.534;18.700;2023-10-13T06:53:17;33.30;;;16.38;;
25511;SDS011;13414;44.534;18.700;2023-10-13T06:55:46;53.42;;;34.03;;
25511;SDS011;13414;44.534;18.700;2023-10-13T06:58:14;28.10;;;16.40;;
25511;SDS011;13414;44.534;18.700;2023-10-13T07:00:49;30.52;;;16.40;;
25511;SDS011;13414;44.534;18.700;2023-10-13T07:03:21;30.10;;;16.98;;
25511;SDS011;13414;44.534;18.700;2023-10-13T07:05:50;26.70;;;15.68;;
25511;SDS011;13414;44.534;18.700;2023-10-13T07:08:20;29.35;;;15.75;;
25511;SDS011;13414;44.534;18.700;2023-10-13T07:10:51;29.85;;;15.98;;
25511;SDS011;13414;44.534;18.700;2023-10-13T07:13:27;26.92;;;16.42;;
25511;SDS011;13414;44.534;18.700;2023-10-13T07:15:55;28.23;;;16.42;;
25511;SDS011;13414;44.534;18.700;2023-10-13T07:18:31;27.83;;;15.85;;
25511;SDS011;13414;44.534;18.700;2023-10-13T07:21:02;28.48;;;15.10;;
25511;SDS011;13414;44.534;18.700;2023-10-13T07:23:35;28.02;;;16.17;;
25511;SDS011;13414;44.534;18.700;2023-10-13T07:26:05;41.20;;;17.52;;
25511;SDS011;13414;44.534;18.700;2023-10-13T07:28:33;29.10;;;17.25;;
25511;SDS011;13414;44.534;18.700;2023-10-13T07:31:11;54.47;;;21.30;;
25511;SDS011;13414;44.534;18.700;2023-10-13T07:33:39;29.25;;;17.30;;
25511;SDS011;13414;44.534;18.700;2023-10-13T07:36:08;41.80;;;19.88;;
25511;SDS011;13414;44.534;18.700;2023-10-13T07:38:43;43.55;;;21.23;;
25511;SDS011;13414;44.534;18.700;2023-10-13T07:41:15;40.53;;;22.88;;
25511;SDS011;13414;44.534;18.700;2023-10-13T07:43:42;41.28;;;21.52;;
25511;SDS011;13414;44.534;18.700;2023-10-13T07:46:11;44.85;;;22.85;;
25511;SDS011;13414;44.534;18.700;2023-10-13T07:48:39;36.85;;;25.30;;
25511;SDS011;13414;44.534;18.700;2023-10-13T07:51:07;38.75;;;22.90;;
25511;SDS011;13414;44.534;18.700;2023-10-13T07:53:37;39.35;;;23.88;;
25511;SDS011;13414;44.534;18.700;2023-10-13T07:56:08;35.33;;;18.95;;
25511;SDS011;13414;44.534;18.700;2023-10-13T07:58:40;34.75;;;17.77;;
25511;SDS011;13414;44.534;18.700;2023-10-13T08:01:17;33.47;;;19.55;;
25511;SDS011;13414;44.534;18.700;2023-10-13T08:03:45;28.75;;;19.23;;
25511;SDS011;13414;44.534;18.700;2023-10-13T08:06:13;30.33;;;18.95;;
25511;SDS011;13414;44.534;18.700;2023-10-13T08:08:51;33.67;;;19.77;;
25511;SDS011;13414;44.534;18.700;2023-10-13T08:11:33;28.48;;;19.63;;
25511;SDS011;13414;44.534;18.700;2023-10-13T08:14:04;36.30;;;20.88;;
25511;SDS011;13414;44.534;18.700;2023-10-13T08:16:47;32.63;;;20.52;;
25511;SDS011;13414;44.534;18.700;2023-10-13T08:19:26;40.03;;;24.27;;
25511;SDS011;13414;44.534;18.700;2023-10-13T08:21:58;30.55;;;23.35;;
25511;SDS011;13414;44.534;18.700;2023-10-13T08:24:46;32.08;;;19.65;;
25511;SDS011;13414;44.534;18.700;2023-10-13T08:27:24;29.40;;;18.17;;
25511;SDS011;13414;44.534;18.700;2023-10-13T08:30:01;31.63;;;18.85;;
25511;SDS011;13414;44.534;18.700;2023-10-13T08:32:58;31.88;;;17.63;;
25511;SDS011;13414;44.534;18.700;2023-10-13T08:35:42;30.45;;;17.52;;
25511;SDS011;13414;44.534;18.700;2023-10-13T08:38:20;38.35;;;17.95;;
25511;SDS011;13414;44.534;18.700;2023-10-13T08:40:54;38.53;;;22.63;;
25511;SDS011;13414;44.534;18.700;2023-10-13T08:43:43;47.65;;;23.35;;
25511;SDS011;13414;44.534;18.700;2023-10-13T08:46:17;42.45;;;23.15;;
25511;SDS011;13414;44.534;18.700;2023-10-13T08:48:58;39.63;;;22.73;;
25511;SDS011;13414;44.534;18.700;2023-10-13T08:51:35;48.22;;;20.92;;
25511;SDS011;13414;44.534;18.700;2023-10-13T08:54:14;53.90;;;21.70;;
25511;SDS011;13414;44.534;18.700;2023-10-13T08:56:58;37.95;;;20.65;;
25511;SDS011;13414;44.534;18.700;2023-10-13T08:59:32;34.28;;;20.10;;
25511;SDS011;13414;44.534;18.700;2023-10-13T09:02:12;34.40;;;18.73;;
25511;SDS011;13414;44.534;18.700;2023-10-13T09:04:44;32.13;;;21.35;;
25511;SDS011;13414;44.534;18.700;2023-10-13T09:07:11;31.02;;;18.52;;
25511;SDS011;13414;44.534;18.700;2023-10-13T09:09:47;35.30;;;20.08;;
25511;SDS011;13414;44.534;18.700;2023-10-13T09:12:26;31.15;;;17.98;;
25511;SDS011;13414;44.534;18.700;2023-10-13T09:15:05;55.30;;;21.67;;
25511;SDS011;13414;44.534;18.700;2023-10-13T09:17:47;35.30;;;16.55;;
25511;SDS011;13414;44.534;18.700;2023-10-13T09:20:17;28.38;;;16.35;;
25511;SDS011;13414;44.534;18.700;2023-10-13T09:23:08;35.47;;;16.27;;
25511;SDS011;13414;44.534;18.700;2023-10-13T09:25:38;25.77;;;14.80;;
25511;SDS011;13414;44.534;18.700;2023-10-13T09:28:19;23.08;;;14.15;;
25511;SDS011;13414;44.534;18.700;2023-10-13T09:30:49;35.88;;;15.10;;
25511;SDS011;13414;44.534;18.700;2023-10-13T09:33:21;22.38;;;12.05;;
25511;SDS011;13414;44.534;18.700;2023-10-13T09:35:58;26.58;;;16.42;;
25511;SDS011;13414;44.534;18.700;2023-10-13T09:38:26;23.45;;;13.35;;
25511;SDS011;13414;44.534;18.700;2023-10-13T09:40:54;22.20;;;12.43;;
25511;SDS011;13414;44.534;18.700;2023-10-13T09:46:18;30.05;;;15.70;;
25511;SDS011;13414;44.534;18.700;2023-10-13T09:48:54;28.50;;;17.25;;
25511;SDS011;13414;44.534;18.700;2023-10-13T09:51:30;25.35;;;13.60;;
25511;SDS011;13414;44.534;18.700;2023-10-13T09:53:59;19.02;;;11.40;;
25511;SDS011;13414;44.534;18.700;2023-10-13T09:56:37;21.45;;;13.32;;
25511;SDS011;13414;44.534;18.700;2023-10-13T09:59:18;20.10;;;11.57;;
25511;SDS011;13414;44.534;18.700;2023-10-13T10:01:48;21.50;;;10.73;;
25511;SDS011;13414;44.534;18.700;2023-10-13T10:04:18;21.50;;;11.07;;
25511;SDS011;13414;44.534;18.700;2023-10-13T10:06:51;21.55;;;12.00;;
25511;SDS011;13414;44.534;18.700;2023-10-13T10:09:19;21.13;;;10.13;;
25511;SDS011;13414;44.534;18.700;2023-10-13T10:12:12;22.00;;;9.65;;
25511;SDS011;13414;44.534;18.700;2023-10-13T10:17:56;19.58;;;10.10;;
25511;SDS011;13414;44.534;18.700;2023-10-13T10:20:34;20.08;;;9.70;;
25511;SDS011;13414;44.534;18.700;2023-10-13T10:23:09;17.95;;;9.13;;
25511;SDS011;13414;44.534;18.700;2023-10-13T10:25:48;17.38;;;9.00;;
25511;SDS011;13414;44.534;18.700;2023-10-13T10:28:17;21.65;;;12.98;;
25511;SDS011;13414;44.534;18.700;2023-10-13T10:30:45;21.98;;;9.45;;
25511;SDS011;13414;44.534;18.700;2023-10-13T10:33:12;78.22;;;20.05;;
25511;SDS011;13414;44.534;18.700;2023-10-13T10:35:43;29.52;;;12.07;;
25511;SDS011;13414;44.534;18.700;2023-10-13T10:38:12;18.30;;;10.63;;
25511;SDS011;13414;44.534;18.700;2023-10-13T10:40:53;21.27;;;11.07;;
25511;SDS011;13414;44.534;18.700;2023-10-13T10:43:26;22.33;;;10.60;;
25511;SDS011;13414;44.534;18.700;2023-10-13T10:46:07;32.15;;;11.60;;
25511;SDS011;13414;44.534;18.700;2023-10-13T10:48:36;17.83;;;9.70;;
25511;SDS011;13414;44.534;18.700;2023-10-13T10:51:11;17.88;;;8.85;;
25511;SDS011;13414;44.534;18.700;2023-10-13T10:53:47;15.82;;;9.00;;
25511;SDS011;13414;44.534;18.700;2023-10-13T10:56:40;16.55;;;9.27;;
25511;SDS011;13414;44.534;18.700;2023-10-13T10:59:08;17.20;;;9.23;;
25511;SDS011;13414;44.534;18.700;2023-10-13T11:01:43;19.88;;;9.40;;
25511;SDS011;13414;44.534;18.700;2023-10-13T11:04:16;16.38;;;8.10;;
25511;SDS011;13414;44.534;18.700;2023-10-13T11:06:52;20.73;;;8.98;;
25511;SDS011;13414;44.534;18.700;2023-10-13T11:12:52;20.85;;;9.18;;
25511;SDS011;13414;44.534;18.700;2023-10-13T11:13:56;14.05;;;8.15;;
25511;SDS011;13414;44.534;18.700;2023-10-13T11:16:57;17.55;;;11.23;;
25511;SDS011;13414;44.534;18.700;2023-10-13T11:19:49;20.05;;;9.68;;
25511;SDS011;13414;44.534;18.700;2023-10-13T11:22:36;32.95;;;20.88;;
25511;SDS011;13414;44.534;18.700;2023-10-13T11:25:19;57.35;;;38.40;;
25511;SDS011;13414;44.534;18.700;2023-10-13T11:27:55;89.63;;;63.83;;
25511;SDS011;13414;44.534;18.700;2023-10-13T11:30:24;48.42;;;33.05;;
25511;SDS011;13414;44.534;18.700;2023-10-13T11:33:02;39.97;;;23.58;;
25511;SDS011;13414;44.534;18.700;2023-10-13T11:35:33;30.17;;;20.20;;
25511;SDS011;13414;44.534;18.700;2023-10-13T11:38:23;35.33;;;24.05;;
25511;SDS011;13414;44.534;18.700;2023-10-13T11:40:52;19.92;;;11.18;;
25511;SDS011;13414;44.534;18.700;2023-10-13T11:43:37;25.35;;;14.60;;
25511;SDS011;13414;44.534;18.700;2023-10-13T11:46:26;24.10;;;11.80;;
25511;SDS011;13414;44.534;18.700;2023-10-13T11:49:13;19.63;;;9.95;;
25511;SDS011;13414;44.534;18.700;2023-10-13T11:51:57;19.52;;;9.75;;
25511;SDS011;13414;44.534;18.700;2023-10-13T11:54:36;20.33;;;11.40;;
25511;SDS011;13414;44.534;18.700;2023-10-13T11:57:07;19.25;;;10.95;;
25511;SDS011;13414;44.534;18.700;2023-10-13T11:59:35;18.35;;;10.38;;
25511;SDS011;13414;44.534;18.700;2023-10-13T12:02:10;16.80;;;10.25;;
25511;SDS011;13414;44.534;18.700;2023-10-13T12:04:56;20.55;;;9.23;;
25511;SDS011;13414;44.534;18.700;2023-10-13T12:07:24;15.60;;;8.60;;
25511;SDS011;13414;44.534;18.700;2023-10-13T12:10:12;17.15;;;8.15;;
25511;SDS011;13414;44.534;18.700;2023-10-13T12:12:42;15.63;;;8.77;;
25511;SDS011;13414;44.534;18.700;2023-10-13T12:15:11;17.30;;;9.10;;
25511;SDS011;13414;44.534;18.700;2023-10-13T12:17:56;20.92;;;8.43;;
25511;SDS011;13414;44.534;18.700;2023-10-13T12:20:24;19.15;;;10.35;;
25511;SDS011;13414;44.534;18.700;2023-10-13T12:23:00;22.02;;;9.68;;
25511;SDS011;13414;44.534;18.700;2023-10-13T12:25:42;17.00;;;8.60;;
25511;SDS011;13414;44.534;18.700;2023-10-13T12:28:25;16.88;;;8.23;;
25511;SDS011;13414;44.534;18.700;2023-10-13T12:30:54;19.17;;;7.93;;
25511;SDS011;13414;44.534;18.700;2023-10-13T12:33:24;17.10;;;7.88;;
25511;SDS011;13414;44.534;18.700;2023-10-13T12:35:57;18.50;;;8.38;;
25511;SDS011;13414;44.534;18.700;2023-10-13T12:38:35;18.85;;;8.50;;
25511;SDS011;13414;44.534;18.700;2023-10-13T12:41:38;19.88;;;8.38;;
25511;SDS011;13414;44.534;18.700;2023-10-13T12:44:23;19.90;;;8.80;;
25511;SDS011;13414;44.534;18.700;2023-10-13T12:47:10;21.35;;;9.18;;
25511;SDS011;13414;44.534;18.700;2023-10-13T12:49:55;16.73;;;8.07;;
25511;SDS011;13414;44.534;18.700;2023-10-13T12:52:32;16.85;;;8.35;;
25511;SDS011;13414;44.534;18.700;2023-10-13T12:55:00;25.00;;;11.98;;
25511;SDS011;13414;44.534;18.700;2023-10-13T12:57:40;18.30;;;9.23;;
25511;SDS011;13414;44.534;18.700;2023-10-13T13:00:11;16.27;;;8.27;;
25511;SDS011;13414;44.534;18.700;2023-10-13T13:02:51;17.88;;;8.60;;
25511;SDS011;13414;44.534;18.700;2023-10-13T13:05:21;15.95;;;7.95;;
25511;SDS011;13414;44.534;18.700;2023-10-13T13:07:54;19.23;;;8.82;;
25511;SDS011;13414;44.534;18.700;2023-10-13T13:10:21;17.38;;;8.10;;
25511;SDS011;13414;44.534;18.700;2023-10-13T13:13:06;19.40;;;8.38;;
25511;SDS011;13414;44.534;18.700;2023-10-13T13:15:34;13.90;;;7.15;;
25511;SDS011;13414;44.534;18.700;2023-10-13T13:18:01;12.35;;;7.32;;
25511;SDS011;13414;44.534;18.700;2023-10-13T13:20:37;15.73;;;7.93;;
25511;SDS011;13414;44.534;18.700;2023-10-13T13:23:09;17.70;;;9.38;;
25511;SDS011;13414;44.534;18.700;2023-10-13T13:25:37;17.60;;;10.25;;
25511;SDS011;13414;44.534;18.700;2023-10-13T13:28:09;15.30;;;6.70;;
25511;SDS011;13414;44.534;18.700;2023-10-13T13:30:37;14.75;;;7.65;;
25511;SDS011;13414;44.534;18.700;2023-10-13T13:33:06;15.57;;;7.22;;
25511;SDS011;13414;44.534;18.700;2023-10-13T13:35:37;18.15;;;8.13;;
25511;SDS011;13414;44.534;18.700;2023-10-13T13:38:08;14.70;;;7.70;;
25511;SDS011;13414;44.534;18.700;2023-10-13T13:40:47;20.35;;;7.22;;
25511;SDS011;13414;44.534;18.700;2023-10-13T13:43:20;17.20;;;7.97;;
25511;SDS011;13414;44.534;18.700;2023-10-13T13:46:16;15.70;;;7.10;;
25511;SDS011;13414;44.534;18.700;2023-10-13T13:48:44;16.50;;;7.10;;
25511;SDS011;13414;44.534;18.700;2023-10-13T13:51:13;13.40;;;8.20;;
25511;SDS011;13414;44.534;18.700;2023-10-13T13:53:41;11.80;;;5.85;;
25511;SDS011;13414;44.534;18.700;2023-10-13T13:56:10;20.30;;;6.80;;
25511;SDS011;13414;44.534;18.700;2023-10-13T13:58:42;13.23;;;7.05;;
25511;SDS011;13414;44.534;18.700;2023-10-13T14:01:10;16.38;;;7.13;;
25511;SDS011;13414;44.534;18.700;2023-10-13T14:03:41;14.32;;;7.43;;
25511;SDS011;13414;44.534;18.700;2023-10-13T14:06:12;17.85;;;7.55;;
25511;SDS011;13414;44.534;18.700;2023-10-13T14:08:43;14.52;;;8.85;;
25511;SDS011;13414;44.534;18.700;2023-10-13T14:11:14;18.83;;;8.73;;
25511;SDS011;13414;44.534;18.700;2023-10-13T14:13:57;16.55;;;7.55;;
25511;SDS011;13414;44.534;18.700;2023-10-13T14:16:29;16.98;;;7.65;;
25511;SDS011;13414;44.534;18.700;2023-10-13T14:18:59;14.13;;;6.93;;
25511;SDS011;13414;44.534;18.700;2023-10-13T14:21:27;13.50;;;7.30;;
25511;SDS011;13414;44.534;18.700;2023-10-13T14:23:54;14.07;;;7.60;;
25511;SDS011;13414;44.534;18.700;2023-10-13T14:26:26;16.65;;;7.38;;
25511;SDS011;13414;44.534;18.700;2023-10-13T14:28:53;18.40;;;7.75;;
25511;SDS011;13414;44.534;18.700;2023-10-13T14:31:28;14.77;;;7.43;;
25511;SDS011;13414;44.534;18.700;2023-10-13T14:33:56;20.80;;;9.02;;
25511;SDS011;13414;44.534;18.700;2023-10-13T14:36:23;17.38;;;8.25;;
25511;SDS011;13414;44.534;18.700;2023-10-13T14:38:54;20.75;;;7.90;;
25511;SDS011;13414;44.534;18.700;2023-10-13T14:41:22;17.10;;;7.57;;
25511;SDS011;13414;44.534;18.700;2023-10-13T14:43:49;14.73;;;7.32;;
25511;SDS011;13414;44.534;18.700;2023-10-13T14:46:17;19.65;;;8.35;;
25511;SDS011;13414;44.534;18.700;2023-10-13T14:48:51;18.67;;;9.52;;
25511;SDS011;13414;44.534;18.700;2023-10-13T14:51:18;15.93;;;8.30;;
25511;SDS011;13414;44.534;18.700;2023-10-13T14:53:46;16.65;;;9.80;;
25511;SDS011;13414;44.534;18.700;2023-10-13T14:56:14;22.50;;;13.73;;
25511;SDS011;13414;44.534;18.700;2023-10-13T14:58:43;39.65;;;24.20;;
25511;SDS011;13414;44.534;18.700;2023-10-13T15:01:12;43.75;;;27.13;;
25511;SDS011;13414;44.534;18.700;2023-10-13T15:03:41;50.78;;;27.92;;